sensor_id;sensor_type;location;lat;lon;timestamp;P1;durP1;ratioP1;P2;durP2;ratioP2
22219;SDS011;11279;48.364;10.904;2023-03-24T00:00:05;6.93;;;4.13;;
22219;SDS011;11279;48.364;10.904;2023-03-24T00:01:10;6.90;;;4.38;;
22219;SDS011;11279;48.364;10.904;2023-03-24T00:02:11;8.13;;;4.27;;
22219;SDS011;11279;48.364;10.904;2023-03-24T00:03:13;7.63;;;4.60;;
22219;SDS011;11279;48.364;10.904;2023-03-24T00:04:16;6.93;;;4.45;;
22219;SDS011;11279;48.364;10.904;2023-03-24T00:05:18;10.13;;;4.30;;
22219;SDS011;11279;48.364;10.904;2023-03-24T00:06:19;7.80;;;4.55;;
22219;SDS011;11279;48.364;10.904;2023-03-24T00:07:21;8.15;;;4.60;;
22219;SDS011;11279;48.364;10.904;2023-03-24T00:08:22;7.47;;;4.03;;
22219;SDS011;11279;48.364;10.904;2023-03-24T00:09:23;7.30;;;4.37;;
22219;SDS011;11279;48.364;10.904;2023-03-24T00:10:24;10.10;;;4.50;;
22219;SDS011;11279;48.364;10.904;2023-03-24T00:11:29;12.10;;;4.90;;
22219;SDS011;11279;48.364;10.904;2023-03-24T00:12:33;8.10;;;4.70;;
22219;SDS011;11279;48.364;10.904;2023-03-24T00:13:37;11.10;;;4.45;;
22219;SDS011;11279;48.364;10.904;2023-03-24T00:14:38;6.93;;;4.20;;
22219;SDS011;11279;48.364;10.904;2023-03-24T00:15:39;9.13;;;4.57;;
22219;SDS011;11279;48.364;10.904;2023-03-24T00:16:40;8.30;;;4.40;;
22219;SDS011;11279;48.364;10.904;2023-03-24T00:17:41;7.72;;;3.95;;
22219;SDS011;11279;48.364;10.904;2023-03-24T00:18:42;9.17;;;4.80;;
22219;SDS011;11279;48.364;10.904;2023-03-24T00:19:42;6.43;;;4.53;;
22219;SDS011;11279;48.364;10.904;2023-03-24T00:20:44;8.45;;;5.03;;
22219;SDS011;11279;48.364;10.904;2023-03-24T00:21:45;8.57;;;4.60;;
22219;SDS011;11279;48.364;10.904;2023-03-24T00:22:46;8.20;;;4.93;;
22219;SDS011;11279;48.364;10.904;2023-03-24T00:23:50;7.88;;;4.60;;
22219;SDS011;11279;48.364;10.904;2023-03-24T00:24:53;9.35;;;4.57;;
22219;SDS011;11279;48.364;10.904;2023-03-24T00:26:00;11.87;;;4.90;;
22219;SDS011;11279;48.364;10.904;2023-03-24T00:27:02;8.30;;;4.47;;
22219;SDS011;11279;48.364;10.904;2023-03-24T00:28:03;8.60;;;4.13;;
22219;SDS011;11279;48.364;10.904;2023-03-24T00:29:07;8.20;;;4.68;;
22219;SDS011;11279;48.364;10.904;2023-03-24T00:30:11;7.47;;;4.45;;
22219;SDS011;11279;48.364;10.904;2023-03-24T00:31:12;7.20;;;4.40;;
22219;SDS011;11279;48.364;10.904;2023-03-24T00:32:13;11.40;;;5.10;;
22219;SDS011;11279;48.364;10.904;2023-03-24T00:33:14;5.83;;;3.93;;
22219;SDS011;11279;48.364;10.904;2023-03-24T00:34:15;7.67;;;4.37;;
22219;SDS011;11279;48.364;10.904;2023-03-24T00:35:17;9.80;;;4.75;;
22219;SDS011;11279;48.364;10.904;2023-03-24T00:36:18;8.77;;;4.40;;
22219;SDS011;11279;48.364;10.904;2023-03-24T00:37:20;7.50;;;4.18;;
22219;SDS011;11279;48.364;10.904;2023-03-24T00:38:20;9.77;;;4.60;;
22219;SDS011;11279;48.364;10.904;2023-03-24T00:39:20;7.83;;;4.60;;
22219;SDS011;11279;48.364;10.904;2023-03-24T00:40:21;6.10;;;4.23;;
22219;SDS011;11279;48.364;10.904;2023-03-24T00:41:21;7.17;;;4.33;;
22219;SDS011;11279;48.364;10.904;2023-03-24T00:42:23;8.00;;;4.50;;
22219;SDS011;11279;48.364;10.904;2023-03-24T00:43:24;8.83;;;5.00;;
22219;SDS011;11279;48.364;10.904;2023-03-24T00:44:24;7.93;;;4.60;;
22219;SDS011;11279;48.364;10.904;2023-03-24T00:45:25;8.23;;;4.63;;
22219;SDS011;11279;48.364;10.904;2023-03-24T00:46:25;7.03;;;4.03;;
22219;SDS011;11279;48.364;10.904;2023-03-24T00:47:26;9.45;;;4.47;;
22219;SDS011;11279;48.364;10.904;2023-03-24T00:48:27;7.40;;;4.30;;
22219;SDS011;11279;48.364;10.904;2023-03-24T00:49:29;7.10;;;4.68;;
22219;SDS011;11279;48.364;10.904;2023-03-24T00:50:44;6.82;;;4.40;;
22219;SDS011;11279;48.364;10.904;2023-03-24T00:51:45;6.75;;;4.57;;
22219;SDS011;11279;48.364;10.904;2023-03-24T00:52:46;6.90;;;4.67;;
22219;SDS011;11279;48.364;10.904;2023-03-24T00:53:48;7.45;;;4.40;;
22219;SDS011;11279;48.364;10.904;2023-03-24T00:54:49;7.63;;;4.03;;
22219;SDS011;11279;48.364;10.904;2023-03-24T00:55:50;7.20;;;4.07;;
22219;SDS011;11279;48.364;10.904;2023-03-24T00:56:51;9.50;;;4.47;;
22219;SDS011;11279;48.364;10.904;2023-03-24T00:57:54;8.18;;;4.40;;
22219;SDS011;11279;48.364;10.904;2023-03-24T00:58:55;8.17;;;4.40;;
22219;SDS011;11279;48.364;10.904;2023-03-24T00:59:57;7.55;;;4.22;;
22219;SDS011;11279;48.364;10.904;2023-03-24T01:00:57;8.90;;;4.30;;
22219;SDS011;11279;48.364;10.904;2023-03-24T01:01:58;8.37;;;4.10;;
22219;SDS011;11279;48.364;10.904;2023-03-24T01:02:58;8.00;;;4.40;;
22219;SDS011;11279;48.364;10.904;2023-03-24T01:04:02;9.10;;;4.78;;
22219;SDS011;11279;48.364;10.904;2023-03-24T01:05:05;7.88;;;4.25;;
22219;SDS011;11279;48.364;10.904;2023-03-24T01:06:05;6.13;;;4.00;;
22219;SDS011;11279;48.364;10.904;2023-03-24T01:07:06;6.97;;;4.00;;
22219;SDS011;11279;48.364;10.904;2023-03-24T01:08:09;9.18;;;4.47;;
22219;SDS011;11279;48.364;10.904;2023-03-24T01:09:10;9.90;;;4.20;;
22219;SDS011;11279;48.364;10.904;2023-03-24T01:10:12;7.13;;;4.28;;
22219;SDS011;11279;48.364;10.904;2023-03-24T01:11:13;6.93;;;4.00;;
22219;SDS011;11279;48.364;10.904;2023-03-24T01:12:14;7.60;;;4.38;;
22219;SDS011;11279;48.364;10.904;2023-03-24T01:13:19;10.23;;;4.47;;
22219;SDS011;11279;48.364;10.904;2023-03-24T01:14:21;7.57;;;4.43;;
22219;SDS011;11279;48.364;10.904;2023-03-24T01:15:22;7.87;;;4.63;;
22219;SDS011;11279;48.364;10.904;2023-03-24T01:16:25;8.13;;;4.25;;
22219;SDS011;11279;48.364;10.904;2023-03-24T01:17:27;9.82;;;4.43;;
22219;SDS011;11279;48.364;10.904;2023-03-24T01:18:28;9.13;;;4.32;;
22219;SDS011;11279;48.364;10.904;2023-03-24T01:19:29;8.30;;;4.60;;
22219;SDS011;11279;48.364;10.904;2023-03-24T01:20:32;8.82;;;4.70;;
22219;SDS011;11279;48.364;10.904;2023-03-24T01:21:32;9.50;;;4.63;;
22219;SDS011;11279;48.364;10.904;2023-03-24T01:22:36;9.38;;;4.75;;
22219;SDS011;11279;48.364;10.904;2023-03-24T01:23:43;8.30;;;4.65;;
22219;SDS011;11279;48.364;10.904;2023-03-24T01:24:44;7.37;;;4.27;;
22219;SDS011;11279;48.364;10.904;2023-03-24T01:25:45;7.20;;;4.40;;
22219;SDS011;11279;48.364;10.904;2023-03-24T01:26:47;8.15;;;4.43;;
22219;SDS011;11279;48.364;10.904;2023-03-24T01:27:48;8.30;;;4.43;;
22219;SDS011;11279;48.364;10.904;2023-03-24T01:28:49;8.07;;;4.63;;
22219;SDS011;11279;48.364;10.904;2023-03-24T01:29:50;8.93;;;4.93;;
22219;SDS011;11279;48.364;10.904;2023-03-24T01:30:51;9.80;;;4.90;;
22219;SDS011;11279;48.364;10.904;2023-03-24T01:31:52;10.32;;;5.13;;
22219;SDS011;11279;48.364;10.904;2023-03-24T01:32:52;8.97;;;4.67;;
22219;SDS011;11279;48.364;10.904;2023-03-24T01:33:53;7.60;;;4.47;;
22219;SDS011;11279;48.364;10.904;2023-03-24T01:34:53;8.93;;;5.00;;
22219;SDS011;11279;48.364;10.904;2023-03-24T01:35:54;10.73;;;4.77;;
22219;SDS011;11279;48.364;10.904;2023-03-24T01:36:54;11.07;;;5.10;;
22219;SDS011;11279;48.364;10.904;2023-03-24T01:37:55;9.07;;;4.93;;
22219;SDS011;11279;48.364;10.904;2023-03-24T01:38:56;7.13;;;4.50;;
22219;SDS011;11279;48.364;10.904;2023-03-24T01:40:00;7.50;;;4.68;;
22219;SDS011;11279;48.364;10.904;2023-03-24T01:41:01;9.52;;;5.10;;
22219;SDS011;11279;48.364;10.904;2023-03-24T01:42:01;9.50;;;5.60;;
22219;SDS011;11279;48.364;10.904;2023-03-24T01:43:02;8.30;;;5.07;;
22219;SDS011;11279;48.364;10.904;2023-03-24T01:44:23;7.88;;;4.78;;
22219;SDS011;11279;48.364;10.904;2023-03-24T01:47:01;9.40;;;5.30;;
22219;SDS011;11279;48.364;10.904;2023-03-24T01:48:07;10.85;;;5.00;;
22219;SDS011;11279;48.364;10.904;2023-03-24T01:49:13;10.68;;;4.80;;
22219;SDS011;11279;48.364;10.904;2023-03-24T01:50:14;11.03;;;5.60;;
22219;SDS011;11279;48.364;10.904;2023-03-24T01:51:31;11.07;;;5.60;;
22219;SDS011;11279;48.364;10.904;2023-03-24T01:52:39;7.45;;;4.93;;
22219;SDS011;11279;48.364;10.904;2023-03-24T01:53:47;8.15;;;5.10;;
22219;SDS011;11279;48.364;10.904;2023-03-24T01:54:55;8.35;;;5.22;;
22219;SDS011;11279;48.364;10.904;2023-03-24T01:55:58;8.50;;;4.88;;
22219;SDS011;11279;48.364;10.904;2023-03-24T01:57:11;11.10;;;5.40;;
22219;SDS011;11279;48.364;10.904;2023-03-24T01:58:13;9.63;;;5.05;;
22219;SDS011;11279;48.364;10.904;2023-03-24T01:59:17;7.97;;;5.10;;
22219;SDS011;11279;48.364;10.904;2023-03-24T02:00:19;9.30;;;5.20;;
22219;SDS011;11279;48.364;10.904;2023-03-24T02:01:23;9.15;;;4.95;;
22219;SDS011;11279;48.364;10.904;2023-03-24T02:02:28;10.70;;;5.50;;
22219;SDS011;11279;48.364;10.904;2023-03-24T02:03:33;8.25;;;5.38;;
22219;SDS011;11279;48.364;10.904;2023-03-24T02:04:42;10.00;;;5.72;;
22219;SDS011;11279;48.364;10.904;2023-03-24T02:05:44;9.60;;;5.78;;
22219;SDS011;11279;48.364;10.904;2023-03-24T02:06:46;8.85;;;5.22;;
22219;SDS011;11279;48.364;10.904;2023-03-24T02:07:53;9.43;;;5.68;;
22219;SDS011;11279;48.364;10.904;2023-03-24T02:09:01;9.80;;;5.63;;
22219;SDS011;11279;48.364;10.904;2023-03-24T02:10:04;9.52;;;5.20;;
22219;SDS011;11279;48.364;10.904;2023-03-24T02:11:06;8.95;;;5.47;;
22219;SDS011;11279;48.364;10.904;2023-03-24T02:12:07;9.55;;;6.03;;
22219;SDS011;11279;48.364;10.904;2023-03-24T02:13:08;9.87;;;6.10;;
22219;SDS011;11279;48.364;10.904;2023-03-24T02:14:09;9.63;;;5.93;;
22219;SDS011;11279;48.364;10.904;2023-03-24T02:15:11;11.07;;;6.13;;
22219;SDS011;11279;48.364;10.904;2023-03-24T02:28:38;11.23;;;6.28;;
22219;SDS011;11279;48.364;10.904;2023-03-24T02:29:45;11.40;;;5.93;;
22219;SDS011;11279;48.364;10.904;2023-03-24T02:37:22;9.88;;;6.15;;
22219;SDS011;11279;48.364;10.904;2023-03-24T02:38:33;11.57;;;5.88;;
22219;SDS011;11279;48.364;10.904;2023-03-24T02:41:08;10.38;;;5.70;;
22219;SDS011;11279;48.364;10.904;2023-03-24T02:42:22;8.25;;;5.20;;
22219;SDS011;11279;48.364;10.904;2023-03-24T02:45:11;10.52;;;5.60;;
22219;SDS011;11279;48.364;10.904;2023-03-24T02:46:19;12.88;;;6.03;;
22219;SDS011;11279;48.364;10.904;2023-03-24T02:47:33;9.75;;;5.53;;
22219;SDS011;11279;48.364;10.904;2023-03-24T02:51:12;9.02;;;5.10;;
22219;SDS011;11279;48.364;10.904;2023-03-24T02:52:24;10.65;;;5.50;;
22219;SDS011;11279;48.364;10.904;2023-03-24T02:55:26;9.32;;;5.30;;
22219;SDS011;11279;48.364;10.904;2023-03-24T02:56:46;7.35;;;4.55;;
22219;SDS011;11279;48.364;10.904;2023-03-24T02:57:57;7.90;;;5.03;;
22219;SDS011;11279;48.364;10.904;2023-03-24T03:00:05;8.35;;;4.70;;
22219;SDS011;11279;48.364;10.904;2023-03-24T03:01:39;11.48;;;5.03;;
22219;SDS011;11279;48.364;10.904;2023-03-24T03:02:50;8.32;;;5.03;;
22219;SDS011;11279;48.364;10.904;2023-03-24T03:03:54;7.60;;;4.88;;
22219;SDS011;11279;48.364;10.904;2023-03-24T03:05:20;8.48;;;5.60;;
22219;SDS011;11279;48.364;10.904;2023-03-24T03:06:24;8.25;;;4.80;;
22219;SDS011;11279;48.364;10.904;2023-03-24T03:07:28;8.00;;;5.07;;
22219;SDS011;11279;48.364;10.904;2023-03-24T03:08:32;9.90;;;5.25;;
22219;SDS011;11279;48.364;10.904;2023-03-24T03:09:37;9.32;;;5.15;;
22219;SDS011;11279;48.364;10.904;2023-03-24T03:10:42;7.57;;;4.82;;
22219;SDS011;11279;48.364;10.904;2023-03-24T03:11:46;8.70;;;5.03;;
22219;SDS011;11279;48.364;10.904;2023-03-24T03:12:49;8.15;;;5.07;;
22219;SDS011;11279;48.364;10.904;2023-03-24T03:13:53;9.02;;;5.10;;
22219;SDS011;11279;48.364;10.904;2023-03-24T03:15:15;9.75;;;5.32;;
22219;SDS011;11279;48.364;10.904;2023-03-24T03:16:42;9.05;;;5.20;;
22219;SDS011;11279;48.364;10.904;2023-03-24T03:17:54;8.00;;;4.32;;
22219;SDS011;11279;48.364;10.904;2023-03-24T03:19:29;9.27;;;4.95;;
22219;SDS011;11279;48.364;10.904;2023-03-24T03:20:42;8.43;;;5.00;;
22219;SDS011;11279;48.364;10.904;2023-03-24T03:21:49;9.55;;;5.00;;
22219;SDS011;11279;48.364;10.904;2023-03-24T03:22:55;7.80;;;5.00;;
22219;SDS011;11279;48.364;10.904;2023-03-24T03:24:02;10.00;;;4.82;;
22219;SDS011;11279;48.364;10.904;2023-03-24T03:25:06;10.98;;;4.88;;
22219;SDS011;11279;48.364;10.904;2023-03-24T03:26:07;8.93;;;5.33;;
22219;SDS011;11279;48.364;10.904;2023-03-24T03:27:14;9.35;;;5.50;;
22219;SDS011;11279;48.364;10.904;2023-03-24T03:28:19;7.47;;;4.95;;
22219;SDS011;11279;48.364;10.904;2023-03-24T03:29:21;8.82;;;4.75;;
22219;SDS011;11279;48.364;10.904;2023-03-24T03:30:26;10.35;;;5.18;;
22219;SDS011;11279;48.364;10.904;2023-03-24T03:31:38;7.80;;;4.70;;
22219;SDS011;11279;48.364;10.904;2023-03-24T03:32:43;10.32;;;5.00;;
22219;SDS011;11279;48.364;10.904;2023-03-24T03:33:55;7.50;;;4.75;;
22219;SDS011;11279;48.364;10.904;2023-03-24T03:35:06;9.65;;;5.50;;
22219;SDS011;11279;48.364;10.904;2023-03-24T03:36:27;7.50;;;5.03;;
22219;SDS011;11279;48.364;10.904;2023-03-24T03:37:33;7.25;;;4.95;;
22219;SDS011;11279;48.364;10.904;2023-03-24T03:40:20;7.70;;;4.78;;
22219;SDS011;11279;48.364;10.904;2023-03-24T03:41:22;11.68;;;4.70;;
22219;SDS011;11279;48.364;10.904;2023-03-24T03:42:22;10.67;;;5.37;;
22219;SDS011;11279;48.364;10.904;2023-03-24T03:43:23;10.17;;;5.43;;
22219;SDS011;11279;48.364;10.904;2023-03-24T03:44:25;9.73;;;5.18;;
22219;SDS011;11279;48.364;10.904;2023-03-24T03:45:25;11.03;;;4.80;;
22219;SDS011;11279;48.364;10.904;2023-03-24T03:46:26;8.37;;;5.30;;
22219;SDS011;11279;48.364;10.904;2023-03-24T03:47:26;12.03;;;5.13;;
22219;SDS011;11279;48.364;10.904;2023-03-24T03:48:26;9.33;;;5.13;;
22219;SDS011;11279;48.364;10.904;2023-03-24T03:49:28;8.80;;;5.15;;
22219;SDS011;11279;48.364;10.904;2023-03-24T03:50:28;8.00;;;4.97;;
22219;SDS011;11279;48.364;10.904;2023-03-24T03:51:29;9.60;;;4.80;;
22219;SDS011;11279;48.364;10.904;2023-03-24T03:52:31;9.00;;;4.50;;
22219;SDS011;11279;48.364;10.904;2023-03-24T03:53:37;8.00;;;4.97;;
22219;SDS011;11279;48.364;10.904;2023-03-24T03:54:43;7.72;;;4.72;;
22219;SDS011;11279;48.364;10.904;2023-03-24T03:55:44;7.22;;;4.68;;
22219;SDS011;11279;48.364;10.904;2023-03-24T03:56:46;7.97;;;4.47;;
22219;SDS011;11279;48.364;10.904;2023-03-24T03:57:49;7.53;;;4.78;;
22219;SDS011;11279;48.364;10.904;2023-03-24T03:58:49;7.60;;;4.97;;
22219;SDS011;11279;48.364;10.904;2023-03-24T03:59:50;7.90;;;4.47;;
22219;SDS011;11279;48.364;10.904;2023-03-24T04:00:50;8.33;;;4.50;;
22219;SDS011;11279;48.364;10.904;2023-03-24T04:01:51;8.50;;;4.60;;
22219;SDS011;11279;48.364;10.904;2023-03-24T04:13:14;7.85;;;4.70;;
22219;SDS011;11279;48.364;10.904;2023-03-24T04:14:23;6.50;;;4.13;;
22219;SDS011;11279;48.364;10.904;2023-03-24T04:15:45;10.23;;;4.90;;
22219;SDS011;11279;48.364;10.904;2023-03-24T04:20:04;7.00;;;4.30;;
22219;SDS011;11279;48.364;10.904;2023-03-24T04:21:17;7.53;;;4.25;;
22219;SDS011;11279;48.364;10.904;2023-03-24T04:23:54;9.27;;;4.70;;
22219;SDS011;11279;48.364;10.904;2023-03-24T04:26:18;7.45;;;4.28;;
22219;SDS011;11279;48.364;10.904;2023-03-24T04:28:39;8.13;;;4.90;;
22219;SDS011;11279;48.364;10.904;2023-03-24T04:31:13;6.88;;;4.50;;
22219;SDS011;11279;48.364;10.904;2023-03-24T04:32:25;6.65;;;3.88;;
22219;SDS011;11279;48.364;10.904;2023-03-24T04:33:45;9.57;;;4.72;;
22219;SDS011;11279;48.364;10.904;2023-03-24T04:34:51;10.40;;;4.30;;
22219;SDS011;11279;48.364;10.904;2023-03-24T04:35:57;7.65;;;4.50;;
22219;SDS011;11279;48.364;10.904;2023-03-24T04:38:08;6.32;;;4.10;;
22219;SDS011;11279;48.364;10.904;2023-03-24T04:39:11;9.13;;;4.38;;
22219;SDS011;11279;48.364;10.904;2023-03-24T04:40:13;8.65;;;4.40;;
22219;SDS011;11279;48.364;10.904;2023-03-24T04:41:16;8.45;;;5.18;;
22219;SDS011;11279;48.364;10.904;2023-03-24T04:42:31;9.65;;;4.78;;
22219;SDS011;11279;48.364;10.904;2023-03-24T04:43:37;7.85;;;4.55;;
22219;SDS011;11279;48.364;10.904;2023-03-24T04:44:37;7.70;;;4.63;;
22219;SDS011;11279;48.364;10.904;2023-03-24T04:45:40;7.60;;;4.53;;
22219;SDS011;11279;48.364;10.904;2023-03-24T04:46:41;8.60;;;5.00;;
22219;SDS011;11279;48.364;10.904;2023-03-24T04:47:46;8.30;;;4.57;;
22219;SDS011;11279;48.364;10.904;2023-03-24T04:48:52;10.32;;;4.80;;
22219;SDS011;11279;48.364;10.904;2023-03-24T04:50:06;8.70;;;5.13;;
22219;SDS011;11279;48.364;10.904;2023-03-24T04:51:10;8.05;;;4.80;;
22219;SDS011;11279;48.364;10.904;2023-03-24T04:52:11;10.10;;;4.95;;
22219;SDS011;11279;48.364;10.904;2023-03-24T04:53:11;9.93;;;4.50;;
22219;SDS011;11279;48.364;10.904;2023-03-24T04:54:12;7.57;;;5.00;;
22219;SDS011;11279;48.364;10.904;2023-03-24T04:55:31;8.63;;;5.03;;
22219;SDS011;11279;48.364;10.904;2023-03-24T04:56:51;7.07;;;4.32;;
22219;SDS011;11279;48.364;10.904;2023-03-24T04:57:52;10.90;;;5.10;;
22219;SDS011;11279;48.364;10.904;2023-03-24T04:58:53;8.83;;;4.67;;
22219;SDS011;11279;48.364;10.904;2023-03-24T04:59:53;8.50;;;5.17;;
22219;SDS011;11279;48.364;10.904;2023-03-24T05:00:54;7.80;;;4.60;;
22219;SDS011;11279;48.364;10.904;2023-03-24T05:01:55;10.48;;;5.18;;
22219;SDS011;11279;48.364;10.904;2023-03-24T05:02:56;6.97;;;4.77;;
22219;SDS011;11279;48.364;10.904;2023-03-24T05:03:56;7.93;;;5.00;;
22219;SDS011;11279;48.364;10.904;2023-03-24T05:04:57;9.82;;;5.22;;
22219;SDS011;11279;48.364;10.904;2023-03-24T05:05:58;9.80;;;5.17;;
22219;SDS011;11279;48.364;10.904;2023-03-24T05:06:58;9.23;;;5.30;;
22219;SDS011;11279;48.364;10.904;2023-03-24T05:07:58;9.37;;;5.67;;
22219;SDS011;11279;48.364;10.904;2023-03-24T05:08:59;10.90;;;5.47;;
22219;SDS011;11279;48.364;10.904;2023-03-24T05:10:00;8.93;;;5.17;;
22219;SDS011;11279;48.364;10.904;2023-03-24T05:11:00;9.50;;;5.50;;
22219;SDS011;11279;48.364;10.904;2023-03-24T05:12:00;8.83;;;5.30;;
22219;SDS011;11279;48.364;10.904;2023-03-24T05:13:01;8.23;;;5.47;;
22219;SDS011;11279;48.364;10.904;2023-03-24T05:14:02;9.80;;;5.28;;
22219;SDS011;11279;48.364;10.904;2023-03-24T05:15:03;6.83;;;4.50;;
22219;SDS011;11279;48.364;10.904;2023-03-24T05:16:04;8.00;;;5.00;;
22219;SDS011;11279;48.364;10.904;2023-03-24T05:17:04;9.97;;;5.07;;
22219;SDS011;11279;48.364;10.904;2023-03-24T05:18:05;9.67;;;5.60;;
22219;SDS011;11279;48.364;10.904;2023-03-24T05:19:06;7.83;;;4.77;;
22219;SDS011;11279;48.364;10.904;2023-03-24T05:20:07;10.07;;;4.97;;
22219;SDS011;11279;48.364;10.904;2023-03-24T05:21:11;8.65;;;4.95;;
22219;SDS011;11279;48.364;10.904;2023-03-24T05:22:11;7.57;;;5.13;;
22219;SDS011;11279;48.364;10.904;2023-03-24T05:23:12;8.27;;;4.93;;
22219;SDS011;11279;48.364;10.904;2023-03-24T05:24:12;8.53;;;5.23;;
22219;SDS011;11279;48.364;10.904;2023-03-24T05:25:13;9.43;;;5.53;;
22219;SDS011;11279;48.364;10.904;2023-03-24T05:26:13;10.10;;;5.43;;
22219;SDS011;11279;48.364;10.904;2023-03-24T05:27:14;9.47;;;5.57;;
22219;SDS011;11279;48.364;10.904;2023-03-24T05:28:14;12.70;;;5.87;;
22219;SDS011;11279;48.364;10.904;2023-03-24T05:29:15;7.03;;;4.73;;
22219;SDS011;11279;48.364;10.904;2023-03-24T05:30:16;9.40;;;5.53;;
22219;SDS011;11279;48.364;10.904;2023-03-24T05:31:16;9.23;;;5.27;;
22219;SDS011;11279;48.364;10.904;2023-03-24T05:32:17;7.17;;;4.83;;
22219;SDS011;11279;48.364;10.904;2023-03-24T05:33:17;8.10;;;5.40;;
22219;SDS011;11279;48.364;10.904;2023-03-24T05:34:18;9.07;;;5.23;;
22219;SDS011;11279;48.364;10.904;2023-03-24T05:35:18;10.00;;;5.90;;
22219;SDS011;11279;48.364;10.904;2023-03-24T05:36:18;9.70;;;5.77;;
22219;SDS011;11279;48.364;10.904;2023-03-24T05:37:19;9.53;;;5.17;;
22219;SDS011;11279;48.364;10.904;2023-03-24T05:38:19;11.40;;;5.60;;
22219;SDS011;11279;48.364;10.904;2023-03-24T05:39:20;8.87;;;4.97;;
22219;SDS011;11279;48.364;10.904;2023-03-24T05:40:20;8.27;;;5.43;;
22219;SDS011;11279;48.364;10.904;2023-03-24T05:41:21;11.23;;;5.47;;
22219;SDS011;11279;48.364;10.904;2023-03-24T05:42:21;12.00;;;5.43;;
22219;SDS011;11279;48.364;10.904;2023-03-24T05:43:22;10.60;;;5.50;;
22219;SDS011;11279;48.364;10.904;2023-03-24T05:44:22;7.77;;;5.10;;
22219;SDS011;11279;48.364;10.904;2023-03-24T05:45:22;10.97;;;5.77;;
22219;SDS011;11279;48.364;10.904;2023-03-24T05:46:24;10.68;;;5.80;;
22219;SDS011;11279;48.364;10.904;2023-03-24T05:47:24;12.50;;;6.10;;
22219;SDS011;11279;48.364;10.904;2023-03-24T05:48:26;11.05;;;5.82;;
22219;SDS011;11279;48.364;10.904;2023-03-24T05:49:26;10.43;;;5.67;;
22219;SDS011;11279;48.364;10.904;2023-03-24T05:50:27;12.93;;;6.13;;
22219;SDS011;11279;48.364;10.904;2023-03-24T05:51:27;11.97;;;5.97;;
22219;SDS011;11279;48.364;10.904;2023-03-24T05:52:28;11.60;;;6.17;;
22219;SDS011;11279;48.364;10.904;2023-03-24T05:53:28;10.10;;;6.10;;
22219;SDS011;11279;48.364;10.904;2023-03-24T05:54:30;9.50;;;6.00;;
22219;SDS011;11279;48.364;10.904;2023-03-24T05:55:33;10.50;;;5.53;;
22219;SDS011;11279;48.364;10.904;2023-03-24T05:56:34;10.65;;;5.60;;
22219;SDS011;11279;48.364;10.904;2023-03-24T05:57:35;7.73;;;5.33;;
22219;SDS011;11279;48.364;10.904;2023-03-24T05:58:36;11.17;;;5.70;;
22219;SDS011;11279;48.364;10.904;2023-03-24T05:59:38;11.63;;;5.75;;
22219;SDS011;11279;48.364;10.904;2023-03-24T06:00:38;9.20;;;5.47;;
22219;SDS011;11279;48.364;10.904;2023-03-24T06:01:39;10.30;;;5.97;;
22219;SDS011;11279;48.364;10.904;2023-03-24T06:02:44;10.00;;;5.70;;
22219;SDS011;11279;48.364;10.904;2023-03-24T06:03:45;8.65;;;5.78;;
22219;SDS011;11279;48.364;10.904;2023-03-24T06:04:48;9.70;;;5.53;;
22219;SDS011;11279;48.364;10.904;2023-03-24T06:05:49;8.05;;;5.35;;
22219;SDS011;11279;48.364;10.904;2023-03-24T06:06:50;12.47;;;6.20;;
22219;SDS011;11279;48.364;10.904;2023-03-24T06:07:50;12.67;;;5.70;;
22219;SDS011;11279;48.364;10.904;2023-03-24T06:08:57;8.68;;;5.65;;
22219;SDS011;11279;48.364;10.904;2023-03-24T06:10:01;9.50;;;5.63;;
22219;SDS011;11279;48.364;10.904;2023-03-24T06:11:06;9.65;;;5.45;;
22219;SDS011;11279;48.364;10.904;2023-03-24T06:12:07;10.73;;;5.70;;
22219;SDS011;11279;48.364;10.904;2023-03-24T06:13:08;9.55;;;5.53;;
22219;SDS011;11279;48.364;10.904;2023-03-24T06:14:09;8.57;;;5.20;;
22219;SDS011;11279;48.364;10.904;2023-03-24T06:15:10;11.97;;;5.23;;
22219;SDS011;11279;48.364;10.904;2023-03-24T06:16:11;10.97;;;5.60;;
22219;SDS011;11279;48.364;10.904;2023-03-24T06:17:11;13.20;;;5.93;;
22219;SDS011;11279;48.364;10.904;2023-03-24T06:18:16;12.80;;;6.18;;
22219;SDS011;11279;48.364;10.904;2023-03-24T06:19:17;7.50;;;5.07;;
22219;SDS011;11279;48.364;10.904;2023-03-24T06:20:21;9.43;;;5.82;;
22219;SDS011;11279;48.364;10.904;2023-03-24T06:21:22;12.73;;;5.60;;
22219;SDS011;11279;48.364;10.904;2023-03-24T06:22:30;9.13;;;5.68;;
22219;SDS011;11279;48.364;10.904;2023-03-24T06:23:32;10.32;;;5.70;;
22219;SDS011;11279;48.364;10.904;2023-03-24T06:24:33;7.88;;;5.30;;
22219;SDS011;11279;48.364;10.904;2023-03-24T06:25:34;8.73;;;5.40;;
22219;SDS011;11279;48.364;10.904;2023-03-24T06:26:34;9.17;;;5.37;;
22219;SDS011;11279;48.364;10.904;2023-03-24T06:27:35;9.33;;;4.90;;
22219;SDS011;11279;48.364;10.904;2023-03-24T06:28:36;11.00;;;5.87;;
22219;SDS011;11279;48.364;10.904;2023-03-24T06:29:39;9.45;;;5.35;;
22219;SDS011;11279;48.364;10.904;2023-03-24T06:30:43;10.65;;;5.93;;
22219;SDS011;11279;48.364;10.904;2023-03-24T06:31:44;8.95;;;5.53;;
22219;SDS011;11279;48.364;10.904;2023-03-24T06:32:45;8.85;;;5.35;;
22219;SDS011;11279;48.364;10.904;2023-03-24T06:33:48;10.17;;;5.87;;
22219;SDS011;11279;48.364;10.904;2023-03-24T06:34:52;9.10;;;5.30;;
22219;SDS011;11279;48.364;10.904;2023-03-24T06:35:52;10.10;;;5.90;;
22219;SDS011;11279;48.364;10.904;2023-03-24T06:36:53;9.10;;;5.53;;
22219;SDS011;11279;48.364;10.904;2023-03-24T06:37:54;8.70;;;5.47;;
22219;SDS011;11279;48.364;10.904;2023-03-24T06:38:55;8.63;;;5.47;;
22219;SDS011;11279;48.364;10.904;2023-03-24T06:39:55;11.83;;;6.03;;
22219;SDS011;11279;48.364;10.904;2023-03-24T06:40:58;9.10;;;5.63;;
22219;SDS011;11279;48.364;10.904;2023-03-24T06:42:02;8.02;;;5.15;;
22219;SDS011;11279;48.364;10.904;2023-03-24T06:43:03;10.33;;;6.07;;
22219;SDS011;11279;48.364;10.904;2023-03-24T06:44:04;13.80;;;6.30;;
22219;SDS011;11279;48.364;10.904;2023-03-24T06:45:04;10.47;;;5.57;;
22219;SDS011;11279;48.364;10.904;2023-03-24T06:46:05;8.05;;;5.13;;
22219;SDS011;11279;48.364;10.904;2023-03-24T06:47:06;11.83;;;5.67;;
22219;SDS011;11279;48.364;10.904;2023-03-24T06:48:06;7.97;;;5.23;;
22219;SDS011;11279;48.364;10.904;2023-03-24T06:49:07;13.43;;;5.70;;
22219;SDS011;11279;48.364;10.904;2023-03-24T06:50:07;10.13;;;5.60;;
22219;SDS011;11279;48.364;10.904;2023-03-24T06:51:09;13.18;;;5.68;;
22219;SDS011;11279;48.364;10.904;2023-03-24T06:52:09;8.57;;;5.50;;
22219;SDS011;11279;48.364;10.904;2023-03-24T06:53:10;10.93;;;5.83;;
22219;SDS011;11279;48.364;10.904;2023-03-24T06:54:10;18.70;;;6.23;;
22219;SDS011;11279;48.364;10.904;2023-03-24T06:55:11;12.27;;;5.70;;
22219;SDS011;11279;48.364;10.904;2023-03-24T06:56:11;10.20;;;5.90;;
22219;SDS011;11279;48.364;10.904;2023-03-24T06:57:17;11.55;;;6.80;;
22219;SDS011;11279;48.364;10.904;2023-03-24T06:58:17;8.13;;;5.43;;
22219;SDS011;11279;48.364;10.904;2023-03-24T06:59:18;9.77;;;5.77;;
22219;SDS011;11279;48.364;10.904;2023-03-24T07:00:22;9.90;;;5.82;;
22219;SDS011;11279;48.364;10.904;2023-03-24T07:01:24;10.70;;;5.88;;
22219;SDS011;11279;48.364;10.904;2023-03-24T07:02:25;11.70;;;6.27;;
22219;SDS011;11279;48.364;10.904;2023-03-24T07:03:33;8.98;;;5.35;;
22219;SDS011;11279;48.364;10.904;2023-03-24T07:04:33;9.63;;;5.50;;
22219;SDS011;11279;48.364;10.904;2023-03-24T07:05:38;10.40;;;5.80;;